• Join FlightAware (Why Join?)
  • Login
  • US Flag 
Rudolph Flight #1: Arrived! 
06:47AM EST


 

Airport Tracker/Info


-or-


 

Live Flight TrackerFlight Track Log ✈ N1944E ✈ 17-Jan-2014 ✈ KBIL - KCOD

Flight Track Log - Related Links

Times and Time Zones

All times are in EST time to prevent confusion due to time zone crossing. See the N1944E flight status page for this flight to view local times or setup timezone preferences in your user account.

Time Position Orientation Groundspeed Altitude Reporting Facility
EST Latitude Longitude Course Direction KTS MPH feet Rate Location/Type
08:57PM 45.7872 -108.5956 226° Southwest 139 160 5,300  Level Salt Lake Center
08:58PM 45.7475 -108.6169 201° Southwest 156 180 6,100 780 Climbing Salt Lake Center
09:00PM 45.7042 -108.6411 201° Southwest 156 180 7,000 840 Climbing Salt Lake Center
09:01PM 45.6664 -108.6689 207° Southwest 156 180 7,900 840 Climbing Salt Lake Center
09:02PM 45.5437 -108.6357 194° South  Level FlightAware Approximate
09:02PM 45.6175 -108.6825 191° South 166 191 8,800  Level Salt Lake Center
09:03PM 45.5686 -108.6939 189° South 178 205 9,000 60 Climbing Salt Lake Center
09:04PM 45.5122 -108.7122 193° South 190 219 9,000  Level Salt Lake Center
09:05PM 45.4606 -108.7267 191° South 191 220 9,100  Climbing Salt Lake Center
09:06PM 45.4078 -108.7436 193° South 194 223 9,000 -60 Descending Salt Lake Center
09:07PM 45.3519 -108.7600 192° South 194 223 9,000  Level Salt Lake Center
09:08PM 45.2969 -108.7739 190° South 200 230 9,000  Level Salt Lake Center
09:09PM 45.2369 -108.7897 191° South 204 235 9,000  Level Salt Lake Center
09:10PM 45.1814 -108.8050 191° South 205 236 9,100  Climbing Salt Lake Center
09:11PM 45.1200 -108.8222 191° South 209 241 9,100  Level Salt Lake Center
09:13PM 45.0277 -108.8432 189° South  Level FlightAware Approximate
09:20PM 44.6530 -108.9401 191° South  Level FlightAware Approximate
09:21PM 44.6009 -108.9605 205° Southwest  Level FlightAware Approximate
09:22PM 44.5517 -108.9933 205° Southwest  Level FlightAware Approximate
09:23PM 44.5167 -109.0167 205° Southwest  Level FlightAware Approximate
09:24PM 44.5202 -109.0238 205° Southwest  Level Estimated
09:25PM 44.5167 -109.0167 205° Southwest  Level FlightAware Approximate
09:26PM 44.5202 -109.0238 205° Southwest  Level Estimated
09:27PM 44.5167 -109.0167 205° Southwest  Level FlightAware Approximate
09:28PM 44.5202 -109.0238 205° Southwest  Level Estimated
09:29PM 44.5167 -109.0167 205° Southwest  Level FlightAware Approximate
09:30PM 44.5202 -109.0238 205° Southwest  Level Estimated
09:31PM 44.5167 -109.0167 205° Southwest  Level FlightAware Approximate
09:32PM 44.5202 -109.0238 205° Southwest  Level Estimated
09:33PM 44.5167 -109.0167 205° Southwest  Level FlightAware Approximate
09:34PM 44.5202 -109.0238 205° Southwest  Level Estimated
09:35PM 44.5167 -109.0167 205° Southwest  Level FlightAware Approximate
09:36PM 44.5202 -109.0238 205° Southwest  Level Estimated
09:37PM 44.5167 -109.0167 205° Southwest  Level FlightAware Approximate